Zapolyarye — UBEF5 — position and weather

sailwx.info

Track history (hours):
 
Tides and Currents Weather Stations Pressure Air Temp Water Temp Dewpoint Dewpoint Depression Visibility Wind Speed Wind Dir Waves Ship Positions

Zapolyarye

Last reported at 2015-Jan-29 16:25 UTC. Time now 2015-Jan-30 10:58 UTC.
Position N 59°07' E 009°36'.

Length 181 m; draft 9.7 m.

Type: Cargo ship. MMSI: 273338310.

Date/timePositionNaut miles runAvg speedWind from/ knotsBaromVisibWave heightAir tempDewpointWater temp
2015-Jan-29 16:25N 59°07' E 009°36'0 0.0
2015-Jan-29 15:25N 59°07' E 009°36'0 0.0
2015-Jan-29 13:10N 59°07' E 009°36'0 0.0
2015-Jan-28 20:19N 59°07' E 009°36'0 0.1
2015-Jan-28 17:32N 59°07' E 009°37'0 0.0
2015-Jan-26 15:13N 59°07' E 009°37'0 0.0
2015-Jan-26 11:16N 59°07' E 009°37'0 0.0
2015-Jan-26 03:06N 59°07' E 009°37'0 0.0
2015-Jan-25 17:12N 59°07' E 009°37'0 0.0
2015-Jan-25 15:12N 59°07' E 009°37'0 0.0
2015-Jan-25 12:15N 59°07' E 009°37'0 0.0
2015-Jan-25 05:18N 59°07' E 009°37'0 0.0
2015-Jan-25 04:33N 59°07' E 009°37'0 0.0
2015-Jan-25 03:18N 59°07' E 009°37'0 0.1
2015-Jan-25 01:14N 59°07' E 009°37'5 7.7
2015-Jan-25 00:33N 59°02' E 009°43'109 8.7
2015-Jan-24 12:00N 57°42' E 007°24'49 8.4 250 / 211011.510.8 3.0 5.0 8.0
2015-Jan-24 06:08N 58°00' E 005°58'6 9.3
2015-Jan-24 05:32N 58°04' E 005°50'10 8.9
2015-Jan-24 04:25N 58°10' E 005°35'71 7.0
2015-Jan-23 18:21N 59°00' E 004°00'   180 / 411008.9 5.4 4.5 6.0 8.0
2015-Jan-20 12:00N 68°54' E 012°00'   200 / 231023.510.8 2.0 2.0 6.0
Track history (hours):
 
Tides and Currents Weather Stations Pressure Air Temp Water Temp Dewpoint Dewpoint Depression Visibility Wind Speed Wind Dir Waves Ship Positions

Zapolyarye

Last reported at 2015-Jan-29 16:25 UTC. Time now 2015-Jan-30 10:58 UTC.
Position N 59°07' E 009°36'.

Length 181 m; draft 9.7 m.

Type: Cargo ship. MMSI: 273338310.

Date/timePositionNaut miles runAvg speedWind from/ knotsBaromVisibWave heightAir tempDewpointWater temp
2015-Jan-29 16:25N 59°07' E 009°36'0 0.0
2015-Jan-29 15:25N 59°07' E 009°36'0 0.0
2015-Jan-29 13:10N 59°07' E 009°36'0 0.0
2015-Jan-28 20:19N 59°07' E 009°36'0 0.1
2015-Jan-28 17:32N 59°07' E 009°37'0 0.0
2015-Jan-26 15:13N 59°07' E 009°37'0 0.0
2015-Jan-26 11:16N 59°07' E 009°37'0 0.0
2015-Jan-26 03:06N 59°07' E 009°37'0 0.0
2015-Jan-25 17:12N 59°07' E 009°37'0 0.0
2015-Jan-25 15:12N 59°07' E 009°37'0 0.0
2015-Jan-25 12:15N 59°07' E 009°37'0 0.0
2015-Jan-25 05:18N 59°07' E 009°37'0 0.0
2015-Jan-25 04:33N 59°07' E 009°37'0 0.0
2015-Jan-25 03:18N 59°07' E 009°37'0 0.1
2015-Jan-25 01:14N 59°07' E 009°37'5 7.7
2015-Jan-25 00:33N 59°02' E 009°43'109 8.7
2015-Jan-24 12:00N 57°42' E 007°24'49 8.4 250 / 211011.510.8 3.0 5.0 8.0
2015-Jan-24 06:08N 58°00' E 005°58'6 9.3
2015-Jan-24 05:32N 58°04' E 005°50'10 8.9
2015-Jan-24 04:25N 58°10' E 005°35'71 7.0
2015-Jan-23 18:21N 59°00' E 004°00'   180 / 411008.9 5.4 4.5 6.0 8.0
2015-Jan-20 12:00N 68°54' E 012°00'   200 / 231023.510.8 2.0 2.0 6.0

Dump ship's entire track history